Terminal Aerodrome Forecast
Issued by NWS

Home | Current Version | Previous Version | Text Only | Print | Product List | Glossary On
Versions: 1 2 3 4 5 6 7 8 9 10 11 12 13 14 15 16
000
FTUS43 KIND 011700
TAFBMG
TAF
KBMG 011724Z 0118/0218 12006KT P6SM FEW035 SCT250
     FM020100 12004KT P6SM SCT250
     FM020900 14003KT P6SM BKN050 BKN250
     FM021600 17007KT P6SM OVC060=

USA.gov is the U.S. government's official web portal to all federal, state and local government web resources and services.